Time;durP1;ratioP1;P1;durP2;ratioP2;P2;SDS_P1;SDS_P2;PMS_P1;PMS_P2;Temp;Humidity;BMP_temperature;BMP_pressure;BME280_temperature;BME280_humidity;BME280_pressure;Samples;Min_cycle;Max_cycle;Signal;HPM_P1;HPM_P2
2022/01/14 00:01:46;;;;;;;40.03;22.70;;;1.10;99.90;;;;;;5014060;28;20435;-57
2022/01/14 00:04:12;;;;;;;43.77;23.63;;;1.30;99.90;;;;;;5013663;28;20423;-54
2022/01/14 00:06:37;;;;;;;44.67;24.97;;;1.50;99.90;;;;;;5013516;28;20459;-54
2022/01/14 00:09:07;;;;;;;41.57;21.93;;;1.70;99.90;;;;;;5013551;28;20442;-57
2022/01/14 00:11:39;;;;;;;34.53;20.80;;;1.80;99.90;;;;;;5013704;28;20211;-60
2022/01/14 00:16:31;;;;;;;38.20;21.67;;;2.00;99.90;;;;;;5013728;28;20943;-57
2022/01/14 00:18:59;;;;;;;37.83;20.13;;;2.10;99.90;;;;;;5014157;28;20694;-55
2022/01/14 00:21:29;;;;;;;37.67;21.13;;;2.10;99.90;;;;;;5013500;28;20473;-56
2022/01/14 00:24:07;;;;;;;40.47;20.63;;;2.20;99.90;;;;;;5013475;28;20443;-54
2022/01/14 00:32:10;;;;;;;41.17;23.17;;;2.20;99.90;;;;;;5013787;28;20882;-57
2022/01/14 00:34:36;;;;;;;39.80;22.70;;;2.10;99.90;;;;;;5012962;28;21140;-57
2022/01/14 00:37:03;;;;;;;40.73;23.10;;;2.20;99.90;;;;;;5013531;28;20412;-58
2022/01/14 00:39:29;;;;;;;40.30;21.40;;;2.20;99.90;;;;;;5013452;28;20235;-56
2022/01/14 00:41:55;;;;;;;38.33;21.30;;;2.20;99.90;;;;;;5013165;28;20472;-60
2022/01/14 00:44:21;;;;;;;37.43;20.17;;;2.10;99.90;;;;;;5013034;28;20654;-58
2022/01/14 00:46:48;;;;;;;35.60;19.77;;;2.20;99.90;;;;;;5012907;28;20462;-56
2022/01/14 00:49:15;;;;;;;36.80;20.13;;;2.20;99.90;;;;;;5012768;28;20177;-56
2022/01/14 00:51:42;;;;;;;36.03;20.33;;;2.10;99.90;;;;;;5012922;28;20610;-58
2022/01/14 00:54:08;;;;;;;35.10;20.43;;;1.90;99.90;;;;;;5012812;28;20491;-57
2022/01/14 00:56:47;;;;;;;36.47;21.77;;;1.70;99.90;;;;;;5013097;28;20490;-55
2022/01/14 00:59:15;;;;;;;35.33;19.97;;;1.80;99.90;;;;;;5012975;28;20415;-56
2022/01/14 01:01:45;;;;;;;34.63;19.97;;;1.80;99.90;;;;;;5012993;28;20427;-58
2022/01/14 01:04:13;;;;;;;32.83;19.13;;;1.70;99.90;;;;;;5012527;28;20498;-56
2022/01/14 01:06:40;;;;;;;36.47;20.57;;;1.60;99.90;;;;;;5012707;28;20458;-57
2022/01/14 01:09:11;;;;;;;35.07;19.13;;;1.50;99.90;;;;;;5012437;28;20435;-55
2022/01/14 01:11:46;;;;;;;38.67;20.83;;;1.30;99.90;;;;;;5012170;28;20459;-56
2022/01/14 01:14:20;;;;;;;39.90;21.67;;;1.30;99.90;;;;;;5012243;28;21111;-59
2022/01/14 01:16:46;;;;;;;36.73;19.63;;;1.40;99.90;;;;;;5012427;28;20411;-57
2022/01/14 01:19:12;;;;;;;36.77;20.50;;;1.50;99.90;;;;;;5012585;28;20482;-55
2022/01/14 01:21:38;;;;;;;40.17;21.77;;;1.60;99.90;;;;;;5013541;28;20223;-54
2022/01/14 01:24:04;;;;;;;41.70;22.73;;;1.60;99.90;;;;;;5012281;28;20224;-56
2022/01/14 01:26:35;;;;;;;36.60;21.03;;;1.60;99.90;;;;;;5012063;28;20498;-56
2022/01/14 01:31:36;;;;;;;42.00;23.00;;;1.60;99.90;;;;;;5012442;28;20796;-58
2022/01/14 01:34:15;;;;;;;37.90;22.23;;;1.80;99.90;;;;;;5012167;28;20407;-60
2022/01/14 01:36:43;;;;;;;39.43;20.87;;;1.90;99.90;;;;;;5012376;28;20410;-58
2022/01/14 01:39:16;;;;;;;34.80;20.20;;;1.90;99.90;;;;;;5011654;28;20422;-54
2022/01/14 01:41:44;;;;;;;37.00;20.80;;;1.90;99.90;;;;;;5012046;28;20506;-53
2022/01/14 01:44:11;;;;;;;37.27;21.50;;;2.00;99.90;;;;;;5011879;28;20411;-57
2022/01/14 01:46:40;;;;;;;32.87;19.33;;;2.00;99.90;;;;;;5011897;28;20490;-60
2022/01/14 01:49:08;;;;;;;32.67;19.87;;;2.10;99.90;;;;;;5012095;28;20952;-57
2022/01/14 01:51:34;;;;;;;36.03;19.80;;;2.10;99.90;;;;;;5012006;28;20442;-58
2022/01/14 01:54:00;;;;;;;33.80;20.23;;;2.00;99.90;;;;;;5011870;28;20407;-58
2022/01/14 01:56:25;;;;;;;38.37;21.83;;;1.70;99.90;;;;;;5011297;28;20177;-58
2022/01/14 01:58:51;;;;;;;31.70;18.63;;;1.70;99.90;;;;;;5011982;28;20410;-58
2022/01/14 02:01:17;;;;;;;34.37;19.90;;;1.70;99.90;;;;;;5011901;28;20210;-58
2022/01/14 02:03:43;;;;;;;34.07;19.80;;;1.80;99.90;;;;;;5012032;28;20241;-57
2022/01/14 02:06:08;;;;;;;38.90;21.13;;;1.50;99.90;;;;;;5011556;28;20914;-57
2022/01/14 02:08:34;;;;;;;36.50;20.80;;;1.20;99.90;;;;;;5011726;28;20200;-60
2022/01/14 02:11:00;;;;;;;40.43;21.23;;;1.00;99.90;;;;;;5011636;28;20189;-59
2022/01/14 02:13:26;;;;;;;39.07;21.97;;;0.80;99.90;;;;;;5011900;28;20681;-60
2022/01/14 02:18:42;;;;;;;36.67;20.00;;;0.70;99.90;;;;;;5012055;28;20673;-57
2022/01/14 02:24:07;;;;;;;35.13;18.70;;;0.60;99.90;;;;;;5012307;28;20422;-57
2022/01/14 02:26:33;;;;;;;35.60;20.13;;;0.40;99.90;;;;;;5011532;28;20466;-57
2022/01/14 02:28:59;;;;;;;37.70;21.37;;;0.60;99.90;;;;;;5011371;28;20443;-58
2022/01/14 02:31:25;;;;;;;35.77;20.60;;;0.70;99.90;;;;;;5011258;28;20463;-55
2022/01/14 02:33:51;;;;;;;35.07;19.93;;;0.80;99.90;;;;;;5011678;28;20228;-57
2022/01/14 02:36:17;;;;;;;36.80;20.27;;;0.90;99.90;;;;;;5011504;28;20658;-57
2022/01/14 02:38:44;;;;;;;40.27;21.30;;;1.10;99.90;;;;;;5011616;28;20412;-59
2022/01/14 02:41:10;;;;;;;40.90;22.20;;;1.00;99.90;;;;;;5011728;28;20211;-57
2022/01/14 02:43:35;;;;;;;45.63;23.87;;;0.90;99.90;;;;;;5011733;28;20419;-53
2022/01/14 02:46:01;;;;;;;47.03;23.23;;;0.80;99.90;;;;;;5011347;28;20211;-58
2022/01/14 02:48:28;;;;;;;42.53;22.30;;;0.60;99.90;;;;;;5011229;28;20646;-58
2022/01/14 02:51:18;;;;;;;51.23;25.17;;;0.40;99.90;;;;;;5013624;28;20189;-54
2022/01/14 02:53:45;;;;;;;46.20;24.20;;;0.20;99.90;;;;;;5014527;28;20454;-56
2022/01/14 02:56:12;;;;;;;42.43;22.27;;;0.10;99.90;;;;;;5014972;28;20426;-57
2022/01/14 02:58:39;;;;;;;44.67;22.27;;;0.00;99.90;;;;;;5014702;28;20885;-58
2022/01/14 03:01:12;;;;;;;43.63;22.83;;;-0.10;99.90;;;;;;5014916;28;20815;-58
2022/01/14 03:03:39;;;;;;;45.00;23.20;;;-0.20;99.90;;;;;;5015186;28;20411;-56
2022/01/14 03:06:06;;;;;;;41.40;22.13;;;-0.20;99.90;;;;;;5014820;28;20618;-56
2022/01/14 03:08:33;;;;;;;45.10;23.57;;;-0.20;99.90;;;;;;5014728;28;20776;-59
2022/01/14 03:11:05;;;;;;;45.83;23.70;;;-0.10;99.90;;;;;;5014572;28;20796;-58
2022/01/14 03:13:30;;;;;;;42.00;22.37;;;0.10;99.90;;;;;;5014869;28;20431;-55
2022/01/14 03:15:56;;;;;;;44.47;22.97;;;0.40;99.90;;;;;;5014547;28;20951;-59
2022/01/14 03:18:31;;;;;;;44.60;23.97;;;0.60;99.90;;;;;;5014947;28;20176;-58
2022/01/14 03:21:09;;;;;;;40.17;22.13;;;0.70;99.90;;;;;;5014768;28;20263;-57
2022/01/14 03:23:45;;;;;;;41.93;22.57;;;0.70;99.90;;;;;;5014665;28;20469;-59
2022/01/14 03:26:16;;;;;;;43.13;22.80;;;0.40;99.90;;;;;;5014011;28;20455;-56
2022/01/14 03:28:43;;;;;;;46.83;23.40;;;0.30;99.90;;;;;;5014624;28;20918;-57
2022/01/14 03:31:09;;;;;;;39.70;22.13;;;0.40;99.90;;;;;;5014671;28;20796;-56
2022/01/14 03:33:35;;;;;;;41.30;23.70;;;0.60;99.90;;;;;;5014534;28;20407;-58
2022/01/14 03:36:02;;;;;;;41.43;22.63;;;0.80;99.90;;;;;;5014369;28;20744;-57
2022/01/14 03:38:28;;;;;;;39.90;22.13;;;1.00;99.90;;;;;;5014330;28;20466;-58
2022/01/14 03:40:54;;;;;;;41.57;22.37;;;1.20;99.90;;;;;;5014471;28;20427;-57
2022/01/14 03:43:19;;;;;;;37.00;21.17;;;1.40;99.90;;;;;;4996845;28;20173;-56
2022/01/14 03:45:46;;;;;;;43.73;21.97;;;1.50;99.90;;;;;;5014097;28;20184;-57
2022/01/14 03:48:12;;;;;;;41.53;23.37;;;1.50;99.90;;;;;;5014182;28;20176;-60
2022/01/14 03:50:38;;;;;;;45.33;24.67;;;1.50;99.90;;;;;;5014029;28;20494;-55
2022/01/14 03:53:04;;;;;;;44.93;23.60;;;1.50;99.90;;;;;;5014146;28;20877;-58
2022/01/14 03:55:29;;;;;;;43.23;24.27;;;1.40;99.90;;;;;;5013772;28;20169;-53
2022/01/14 03:57:55;;;;;;;41.87;23.10;;;1.30;99.90;;;;;;5014159;28;20169;-59
2022/01/14 04:00:20;;;;;;;47.60;23.80;;;1.10;99.90;;;;;;5013911;28;20577;-53
2022/01/14 04:02:47;;;;;;;43.60;22.67;;;0.80;99.90;;;;;;5012895;28;20180;-57
2022/01/14 04:05:13;;;;;;;41.63;23.10;;;0.60;99.90;;;;;;5013205;28;20175;-56
2022/01/14 04:07:38;;;;;;;38.30;21.83;;;0.50;99.90;;;;;;5013656;28;20546;-58
2022/01/14 04:10:05;;;;;;;37.43;21.10;;;0.30;99.90;;;;;;5013731;28;20702;-58
2022/01/14 04:12:58;;;;;;;37.83;21.07;;;0.20;99.90;;;;;;5013418;28;20228;-56
2022/01/14 04:15:37;;;;;;;39.50;21.63;;;0.10;99.90;;;;;;5012972;28;20419;-56
2022/01/14 04:18:03;;;;;;;40.43;21.83;;;0.30;99.90;;;;;;5013788;28;20408;-59
2022/01/14 04:20:29;;;;;;;39.53;21.70;;;0.60;99.90;;;;;;5013453;28;20939;-60
2022/01/14 04:22:55;;;;;;;41.40;22.03;;;0.70;99.90;;;;;;5013371;28;20419;-59
2022/01/14 04:25:21;;;;;;;41.53;22.23;;;0.70;99.90;;;;;;5012840;28;20184;-58
2022/01/14 04:27:47;;;;;;;45.23;22.33;;;0.70;99.90;;;;;;5013176;28;20708;-58
2022/01/14 04:30:13;;;;;;;45.03;23.77;;;0.70;99.90;;;;;;5013551;28;20430;-60
2022/01/14 04:32:39;;;;;;;44.00;23.23;;;0.90;99.90;;;;;;5013458;28;20490;-57
2022/01/14 04:35:05;;;;;;;40.10;22.37;;;1.10;99.90;;;;;;5013019;28;20169;-58
2022/01/14 04:37:31;;;;;;;41.90;21.43;;;1.30;99.90;;;;;;5013415;28;20440;-58
2022/01/14 04:39:56;;;;;;;39.87;21.27;;;1.30;99.90;;;;;;5013272;28;20467;-52
2022/01/14 04:42:23;;;;;;;38.90;21.00;;;1.40;99.90;;;;;;5012384;28;20200;-57
2022/01/14 04:44:53;;;;;;;39.93;20.50;;;1.40;99.90;;;;;;5012797;28;20649;-57
2022/01/14 04:47:30;;;;;;;43.27;23.10;;;1.50;99.90;;;;;;5013125;28;20505;-56
2022/01/14 04:49:56;;;;;;;38.57;20.23;;;1.60;99.90;;;;;;5013122;28;20423;-58
2022/01/14 04:52:23;;;;;;;39.03;21.37;;;1.60;99.90;;;;;;5013154;28;20411;-57
2022/01/14 04:54:48;;;;;;;40.77;20.37;;;1.70;99.90;;;;;;5012844;28;20444;-60
2022/01/14 04:57:16;;;;;;;37.10;20.73;;;1.60;99.90;;;;;;5013110;28;20776;-58
2022/01/14 04:59:46;;;;;;;38.90;21.13;;;1.60;99.90;;;;;;5012898;28;20172;-58
2022/01/14 05:02:12;;;;;;;38.07;21.23;;;1.50;99.90;;;;;;5013122;28;20407;-54
2022/01/14 05:04:38;;;;;;;40.77;20.83;;;1.30;99.90;;;;;;5012724;28;20935;-59
2022/01/14 05:07:04;;;;;;;41.50;21.93;;;1.20;99.90;;;;;;5012964;28;20447;-59
2022/01/14 05:09:38;;;;;;;41.00;22.27;;;1.10;99.90;;;;;;5013022;28;20768;-57
2022/01/14 05:12:08;;;;;;;41.27;21.13;;;1.00;99.90;;;;;;5012414;28;20191;-59
2022/01/14 05:14:34;;;;;;;38.03;20.43;;;1.00;99.90;;;;;;5012494;28;20924;-55
2022/01/14 05:17:00;;;;;;;39.80;21.63;;;1.10;99.90;;;;;;5012789;28;20412;-54
2022/01/14 05:19:25;;;;;;;39.17;21.67;;;1.10;99.90;;;;;;5012079;28;20172;-54
2022/01/14 05:21:51;;;;;;;41.37;21.57;;;1.00;99.90;;;;;;5012430;28;20560;-56
2022/01/14 05:24:17;;;;;;;39.83;21.33;;;0.90;99.90;;;;;;4994663;28;20176;-58
2022/01/14 05:26:42;;;;;;;45.33;22.90;;;0.90;99.90;;;;;;5012606;28;20196;-53
2022/01/14 05:29:08;;;;;;;40.30;21.40;;;0.60;99.90;;;;;;5012586;28;20694;-57
2022/01/14 05:32:05;;;;;;;40.33;20.93;;;0.20;99.90;;;;;;5012383;28;20193;-56
2022/01/14 05:34:31;;;;;;;35.93;19.70;;;-0.10;99.90;;;;;;5010794;28;20685;-54
2022/01/14 05:36:57;;;;;;;37.90;19.50;;;-0.10;99.90;;;;;;5012377;28;20411;-59
2022/01/14 05:39:23;;;;;;;39.23;20.53;;;0.00;99.90;;;;;;5012377;28;20418;-57
2022/01/14 05:41:50;;;;;;;39.23;20.03;;;-0.10;99.90;;;;;;5012179;28;20251;-56
2022/01/14 05:44:15;;;;;;;40.80;21.00;;;-0.10;99.90;;;;;;5012082;28;20196;-56
2022/01/14 05:46:41;;;;;;;42.33;21.73;;;-0.10;99.90;;;;;;5012150;28;20490;-54
2022/01/14 05:49:06;;;;;;;39.93;21.07;;;0.10;99.90;;;;;;5012239;28;20654;-56
2022/01/14 05:51:32;;;;;;;42.27;21.37;;;0.20;99.90;;;;;;5012120;28;20623;-56
2022/01/14 05:53:58;;;;;;;40.17;21.03;;;0.50;99.90;;;;;;5012050;28;20173;-59
2022/01/14 05:56:24;;;;;;;39.53;21.00;;;0.50;99.90;;;;;;5012071;28;20176;-56
2022/01/14 05:58:49;;;;;;;39.83;21.03;;;0.50;99.90;;;;;;5012124;28;20223;-56
2022/01/14 06:01:15;;;;;;;40.97;20.50;;;0.60;99.90;;;;;;5012076;28;20239;-56
2022/01/14 06:03:41;;;;;;;38.17;20.80;;;0.60;99.90;;;;;;5011925;28;20546;-56
2022/01/14 06:06:06;;;;;;;38.13;20.50;;;0.50;99.90;;;;;;5012000;28;20283;-56
2022/01/14 06:08:32;;;;;;;46.60;22.43;;;0.30;99.90;;;;;;5012028;28;20173;-55
2022/01/14 06:10:57;;;;;;;41.27;21.50;;;0.10;99.90;;;;;;5011828;28;20830;-57
2022/01/14 06:13:23;;;;;;;47.70;23.40;;;0.00;99.90;;;;;;5011130;28;20537;-55
2022/01/14 06:15:48;;;;;;;45.93;22.87;;;0.10;99.90;;;;;;5011386;28;20538;-53
2022/01/14 06:18:14;;;;;;;47.77;23.90;;;0.20;99.90;;;;;;5011752;28;20207;-56
2022/01/14 06:20:40;;;;;;;46.73;22.73;;;0.20;99.90;;;;;;4994361;28;20211;-57
2022/01/14 06:23:05;;;;;;;43.93;22.07;;;0.20;99.90;;;;;;5012104;28;20850;-56
2022/01/14 06:25:31;;;;;;;47.23;23.67;;;0.20;99.90;;;;;;5013731;28;20653;-56
2022/01/14 06:27:56;;;;;;;42.17;21.80;;;0.10;99.90;;;;;;4998132;28;20343;-56
2022/01/14 06:30:22;;;;;;;45.90;23.53;;;0.10;99.90;;;;;;5010167;28;20193;-54
2022/01/14 06:32:52;;;;;;;51.27;24.30;;;-0.10;99.90;;;;;;4989428;28;20173;-50
2022/01/14 06:35:17;;;;;;;47.73;24.20;;;-0.30;99.90;;;;;;4995463;28;20170;-55
2022/01/14 06:37:43;;;;;;;48.47;24.07;;;-0.40;99.90;;;;;;4993505;28;20486;-58
2022/01/14 06:40:09;;;;;;;47.33;23.83;;;-0.50;99.90;;;;;;5015298;28;20195;-57
2022/01/14 06:42:35;;;;;;;49.67;24.57;;;-0.50;99.90;;;;;;5015571;28;20187;-55
2022/01/14 06:45:02;;;;;;;50.17;24.53;;;-0.40;99.90;;;;;;5015036;28;20404;-57
2022/01/14 06:47:27;;;;;;;46.63;25.13;;;-0.40;99.90;;;;;;5015339;28;20197;-57
2022/01/14 06:49:53;;;;;;;50.33;24.03;;;-0.40;99.90;;;;;;5000191;28;20416;-54
2022/01/14 06:52:19;;;;;;;53.33;26.03;;;-0.20;99.90;;;;;;4997420;28;20259;-55
2022/01/14 06:54:44;;;;;;;51.53;25.43;;;0.00;99.90;;;;;;5015065;28;20173;-53
2022/01/14 06:57:10;;;;;;;49.47;23.93;;;0.00;99.90;;;;;;4991334;28;20774;-58
2022/01/14 06:59:35;;;;;;;49.13;24.23;;;0.00;99.90;;;;;;4996003;28;20181;-58
2022/01/14 07:02:01;;;;;;;46.60;24.83;;;0.00;99.90;;;;;;5000980;28;20196;-54
2022/01/14 07:04:27;;;;;;;47.17;24.93;;;0.10;99.90;;;;;;4998097;28;20189;-57
2022/01/14 07:06:52;;;;;;;47.53;24.67;;;0.30;99.90;;;;;;4994367;28;20686;-61
2022/01/14 07:09:18;;;;;;;43.80;23.30;;;0.50;99.90;;;;;;4995415;28;20205;-58
2022/01/14 07:11:48;;;;;;;43.53;22.87;;;0.60;99.90;;;;;;4995367;28;20208;-57
2022/01/14 07:14:14;;;;;;;39.10;21.60;;;0.70;99.90;;;;;;5000859;28;20169;-58
2022/01/14 07:16:39;;;;;;;36.73;22.23;;;0.60;99.90;;;;;;5014902;28;20419;-60
2022/01/14 07:19:05;;;;;;;41.13;23.13;;;0.60;99.90;;;;;;5014534;28;20421;-57
2022/01/14 07:21:34;;;;;;;38.40;21.47;;;0.40;99.90;;;;;;5015973;28;20259;-57
2022/01/14 07:24:01;;;;;;;45.20;22.53;;;0.30;99.90;;;;;;5009686;28;20177;-60
2022/01/14 07:26:26;;;;;;;43.57;23.47;;;0.20;99.90;;;;;;5006734;28;20463;-58
2022/01/14 07:28:52;;;;;;;42.07;21.63;;;0.10;99.90;;;;;;5014531;28;20775;-56
2022/01/14 07:31:17;;;;;;;40.93;22.23;;;0.10;99.90;;;;;;5014441;28;20196;-58
2022/01/14 07:33:43;;;;;;;38.70;22.37;;;0.20;99.90;;;;;;5014581;28;20244;-61
2022/01/14 07:36:08;;;;;;;41.70;23.07;;;0.30;99.90;;;;;;5012272;28;20212;-60
2022/01/14 07:38:34;;;;;;;39.93;22.23;;;0.30;99.90;;;;;;5013210;28;20183;-58
2022/01/14 07:40:59;;;;;;;39.97;22.27;;;0.10;99.90;;;;;;5014411;28;20196;-58
2022/01/14 07:43:25;;;;;;;45.27;22.70;;;0.00;99.90;;;;;;5014431;28;20820;-60
2022/01/14 07:45:51;;;;;;;44.57;24.17;;;0.30;99.90;;;;;;5014914;28;20172;-57
2022/01/14 07:48:16;;;;;;;41.67;23.63;;;0.40;99.90;;;;;;5016100;28;20184;-55
2022/01/14 07:50:42;;;;;;;39.67;22.30;;;0.60;99.90;;;;;;5015463;28;20230;-55
2022/01/14 07:53:08;;;;;;;45.93;24.17;;;0.80;99.90;;;;;;5015342;28;20220;-56
2022/01/14 07:55:34;;;;;;;45.53;23.63;;;1.00;99.90;;;;;;5014022;28;20311;-59
2022/01/14 07:58:00;;;;;;;47.67;24.67;;;1.10;99.90;;;;;;5014088;28;20546;-56
2022/01/14 08:00:28;;;;;;;47.30;25.63;;;1.30;99.90;;;;;;5014151;28;20446;-54
2022/01/14 08:02:53;;;;;;;46.53;25.00;;;1.20;99.90;;;;;;5014125;28;20781;-57
2022/01/14 08:05:19;;;;;;;47.00;24.90;;;1.00;99.90;;;;;;5013820;28;20407;-55
2022/01/14 08:07:47;;;;;;;50.53;26.13;;;0.90;99.90;;;;;;5013858;28;20208;-60
2022/01/14 08:10:13;;;;;;;45.90;24.77;;;0.90;99.90;;;;;;5014039;28;20184;-55
2022/01/14 08:12:40;;;;;;;49.90;26.67;;;0.80;99.90;;;;;;5013815;28;20412;-59
2022/01/14 08:15:09;;;;;;;42.43;23.50;;;0.60;99.90;;;;;;5013564;28;20415;-55
2022/01/14 08:17:34;;;;;;;45.07;25.23;;;0.50;99.90;;;;;;5013986;28;20474;-58
2022/01/14 08:20:01;;;;;;;47.40;25.03;;;0.40;99.90;;;;;;5013758;28;20427;-55
2022/01/14 08:22:28;;;;;;;42.33;24.37;;;0.30;99.90;;;;;;5013748;28;20188;-55
2022/01/14 08:24:54;;;;;;;42.60;22.10;;;0.00;99.90;;;;;;5013508;28;20507;-60
2022/01/14 08:27:19;;;;;;;41.27;22.07;;;-0.10;99.90;;;;;;5013495;28;20554;-60
2022/01/14 08:29:47;;;;;;;46.73;23.90;;;0.00;99.90;;;;;;5013444;28;20177;-58
2022/01/14 08:32:13;;;;;;;39.03;22.30;;;0.10;99.90;;;;;;5013586;28;20173;-56
2022/01/14 08:34:39;;;;;;;42.23;23.80;;;0.30;99.90;;;;;;4995612;28;20423;-58
2022/01/14 08:37:05;;;;;;;40.23;22.17;;;0.30;99.90;;;;;;5013991;28;20490;-53
2022/01/14 08:39:30;;;;;;;39.30;23.47;;;0.00;99.90;;;;;;5013243;28;20304;-54
2022/01/14 08:41:58;;;;;;;38.73;22.03;;;-0.10;99.90;;;;;;5013192;28;20207;-55
2022/01/14 08:44:24;;;;;;;38.93;23.13;;;-0.40;99.90;;;;;;5013093;28;20561;-58
2022/01/14 08:46:50;;;;;;;40.13;22.63;;;-0.40;99.90;;;;;;5012973;28;20467;-56
2022/01/14 08:49:16;;;;;;;41.00;22.27;;;-0.50;99.90;;;;;;5012758;28;20176;-57
2022/01/14 08:51:42;;;;;;;42.67;23.53;;;-0.50;99.90;;;;;;5013303;28;20951;-56
2022/01/14 08:54:08;;;;;;;42.07;22.47;;;-0.60;99.90;;;;;;5012977;28;20223;-59
2022/01/14 08:56:34;;;;;;;38.07;22.73;;;-0.60;99.90;;;;;;5013165;28;20172;-59
2022/01/14 08:59:00;;;;;;;42.10;23.63;;;-0.60;99.90;;;;;;5012973;28;20434;-59
2022/01/14 09:01:26;;;;;;;44.73;22.93;;;-0.50;99.90;;;;;;5013134;28;20267;-58
2022/01/14 09:03:52;;;;;;;40.27;23.13;;;-0.50;99.90;;;;;;5013074;28;20423;-57
2022/01/14 09:06:18;;;;;;;40.43;22.93;;;-0.40;99.90;;;;;;5012771;28;20200;-58
2022/01/14 09:08:44;;;;;;;40.53;23.33;;;-0.40;99.90;;;;;;5012962;28;20164;-58
2022/01/14 09:11:09;;;;;;;42.37;23.40;;;-0.30;99.90;;;;;;5013191;28;20578;-56
2022/01/14 09:13:35;;;;;;;42.70;23.37;;;-0.20;99.90;;;;;;5013022;28;20645;-57
2022/01/14 09:16:01;;;;;;;41.17;22.80;;;-0.10;99.90;;;;;;5012620;28;20176;-59
2022/01/14 09:18:29;;;;;;;43.13;23.93;;;0.00;99.90;;;;;;5013006;28;20422;-56
2022/01/14 09:20:58;;;;;;;38.47;22.10;;;0.00;99.90;;;;;;5012733;28;20251;-55
2022/01/14 09:23:25;;;;;;;40.07;22.27;;;0.10;99.90;;;;;;4979598;28;20434;-56
2022/01/14 09:25:52;;;;;;;40.37;23.43;;;0.10;99.90;;;;;;5012662;28;20426;-51
2022/01/14 09:28:17;;;;;;;39.40;23.53;;;0.50;99.90;;;;;;5012692;28;20435;-56
2022/01/14 09:30:43;;;;;;;42.13;24.43;;;0.50;99.90;;;;;;5012445;28;20427;-59
2022/01/14 09:33:09;;;;;;;40.77;22.83;;;;;;;;;;5012290;28;20661;-57
2022/01/14 09:35:35;;;;;;;42.33;23.00;;;0.50;99.90;;;;;;5001767;28;20180;-58
2022/01/14 09:38:00;;;;;;;40.73;23.67;;;0.60;99.90;;;;;;5009128;28;20180;-56
2022/01/14 09:40:27;;;;;;;40.40;23.10;;;0.70;99.90;;;;;;5012270;28;20198;-58
2022/01/14 09:43:00;;;;;;;42.33;24.10;;;0.60;99.90;;;;;;5011683;28;20179;-57
2022/01/14 09:45:28;;;;;;;41.33;24.47;;;0.40;99.90;;;;;;5011969;28;20426;-58
2022/01/14 09:47:54;;;;;;;43.73;25.07;;;0.30;99.90;;;;;;5011913;28;20979;-58
2022/01/14 09:50:20;;;;;;;37.50;22.90;;;0.10;99.90;;;;;;5012116;28;20431;-60
2022/01/14 09:52:47;;;;;;;39.13;22.37;;;0.10;99.90;;;;;;5011970;28;20422;-59
2022/01/14 09:55:12;;;;;;;41.40;23.97;;;0.30;99.90;;;;;;4994370;28;20180;-60
2022/01/14 09:57:38;;;;;;;38.77;23.37;;;0.50;99.90;;;;;;5012138;28;20466;-59
2022/01/14 10:00:07;;;;;;;40.37;23.60;;;0.60;99.90;;;;;;5012042;28;20348;-57
2022/01/14 10:02:37;;;;;;;37.97;23.33;;;0.60;99.90;;;;;;4994310;28;20176;-56
2022/01/14 10:05:04;;;;;;;34.30;20.87;;;0.70;99.90;;;;;;5011517;28;20424;-58
2022/01/14 10:07:32;;;;;;;37.03;22.67;;;0.80;99.90;;;;;;5011973;28;20821;-58
2022/01/14 10:09:59;;;;;;;37.53;22.90;;;0.90;99.90;;;;;;5011870;28;20403;-58
2022/01/14 10:12:30;;;;;;;37.43;22.93;;;1.00;99.90;;;;;;5012018;28;20426;-57
2022/01/14 10:14:58;;;;;;;35.23;20.47;;;1.00;99.90;;;;;;5011511;28;20498;-58
2022/01/14 10:17:25;;;;;;;36.47;21.63;;;0.80;99.90;;;;;;5011749;28;20966;-58
2022/01/14 10:19:51;;;;;;;37.70;21.97;;;0.70;99.90;;;;;;5011621;28;20411;-59
2022/01/14 10:22:31;;;;;;;39.37;23.17;;;0.70;99.90;;;;;;5011834;28;20912;-61
2022/01/14 10:25:14;;;;;;;37.27;21.90;;;0.80;99.90;;;;;;5011251;28;20446;-61
2022/01/14 10:27:54;;;;;;;38.30;21.97;;;0.80;99.90;;;;;;5011251;28;20469;-59
2022/01/14 10:30:29;;;;;;;36.00;21.30;;;0.80;99.90;;;;;;5012294;28;20434;-56
2022/01/14 10:33:06;;;;;;;38.23;22.50;;;0.80;99.90;;;;;;5012848;28;20760;-55
2022/01/14 10:35:37;;;;;;;36.87;21.70;;;1.00;99.90;;;;;;5012033;28;20439;-60
2022/01/14 10:38:05;;;;;;;38.10;22.80;;;1.30;99.90;;;;;;5011979;28;20411;-58
2022/01/14 10:40:34;;;;;;;40.43;24.00;;;1.50;99.90;;;;;;5011558;28;20435;-58
2022/01/14 10:43:09;;;;;;;43.63;23.73;;;1.70;99.90;;;;;;5011722;28;20426;-58
2022/01/14 10:45:35;;;;;;;39.27;22.33;;;1.80;99.90;;;;;;5011773;28;20423;-55
2022/01/14 10:48:10;;;;;;;39.30;23.27;;;1.70;99.90;;;;;;5011433;28;20631;-58
2022/01/14 10:50:44;;;;;;;40.93;24.17;;;1.70;99.90;;;;;;5011565;28;20466;-58
2022/01/14 10:53:16;;;;;;;43.83;25.60;;;1.80;99.90;;;;;;4994007;28;20430;-55
2022/01/14 10:55:46;;;;;;;40.33;23.73;;;1.90;99.90;;;;;;5011707;28;20672;-57
2022/01/14 10:58:26;;;;;;;47.07;25.13;;;1.70;99.90;;;;;;5010642;28;20430;-55
2022/01/14 11:00:59;;;;;;;41.20;24.37;;;1.50;99.90;;;;;;5011165;28;20510;-58
2022/01/14 11:03:57;;;;;;;41.50;24.73;;;1.60;99.90;;;;;;5010771;28;20664;-58
2022/01/14 11:06:27;;;;;;;41.90;24.70;;;1.70;99.90;;;;;;5010741;28;20459;-58
2022/01/14 11:09:04;;;;;;;39.77;22.90;;;1.70;99.90;;;;;;5010759;28;20407;-57
2022/01/14 11:11:32;;;;;;;42.77;24.57;;;1.70;99.90;;;;;;5012418;28;20438;-58
2022/01/14 11:13:58;;;;;;;41.27;24.03;;;1.80;99.90;;;;;;5014382;28;20502;-57
2022/01/14 11:16:25;;;;;;;38.67;24.03;;;2.10;99.90;;;;;;5014429;28;20729;-59
2022/01/14 11:18:51;;;;;;;40.77;24.33;;;2.20;99.90;;;;;;5013892;28;20181;-59
2022/01/14 11:24:04;;;;;;;38.77;23.13;;;1.80;99.90;;;;;;5014865;28;20184;-57
2022/01/14 11:26:36;;;;;;;42.17;25.97;;;1.70;99.90;;;;;;5014322;28;20478;-57
2022/01/14 11:29:06;;;;;;;45.13;26.50;;;1.60;99.90;;;;;;5014828;28;20176;-58
2022/01/14 11:31:35;;;;;;;39.93;25.43;;;1.70;99.90;;;;;;5014282;28;20207;-58
2022/01/14 11:34:04;;;;;;;44.27;25.70;;;2.00;99.90;;;;;;5014272;28;20247;-58
2022/01/14 11:36:53;;;;;;;40.47;24.77;;;2.00;99.90;;;;;;5013233;28;20180;-59
2022/01/14 11:39:34;;;;;;;40.53;23.70;;;2.00;99.90;;;;;;5010211;28;20645;-56
2022/01/14 11:42:00;;;;;;;40.57;24.17;;;2.10;99.90;;;;;;5012015;28;20203;-59
2022/01/14 11:44:45;;;;;;;39.03;23.30;;;2.10;99.90;;;;;;5019702;28;20184;-57
2022/01/14 11:47:26;;;;;;;41.97;24.60;;;2.20;99.90;;;;;;5032827;28;20252;-55
2022/01/14 11:49:54;;;;;;;38.80;22.97;;;2.30;99.90;;;;;;5033531;28;20585;-53
2022/01/14 11:52:40;;;;;;;40.83;23.90;;;2.20;99.90;;;;;;5033197;28;20185;-53
2022/01/14 11:55:35;;;;;;;36.80;22.93;;;2.20;99.90;;;;;;5033265;28;20172;-54
2022/01/14 11:58:04;;;;;;;34.40;22.67;;;2.50;99.90;;;;;;4951812;29;20672;-53
2022/01/14 12:00:30;;;;;;;38.53;24.40;;;2.80;99.90;;;;;;4951495;29;20202;-55
2022/01/14 12:03:11;;;;;;;35.37;22.73;;;3.00;99.90;;;;;;4952885;29;20215;-53
2022/01/14 12:05:57;;;;;;;37.70;23.30;;;3.30;99.90;;;;;;4952533;29;20186;-53
2022/01/14 12:08:23;;;;;;;32.87;21.73;;;3.10;99.90;;;;;;4952744;29;20197;-57
2022/01/14 12:10:56;;;;;;;31.43;20.27;;;2.90;99.90;;;;;;4951561;29;20553;-55
2022/01/14 12:13:48;;;;;;;32.23;20.80;;;3.10;99.90;;;;;;4952580;29;20564;-55
2022/01/14 12:16:19;;;;;;;30.87;19.67;;;3.50;99.90;;;;;;4951643;29;20182;-58
2022/01/14 12:18:57;;;;;;;27.07;18.73;;;4.30;99.90;;;;;;4944958;29;20663;-55
2022/01/14 12:21:37;;;;;;;30.17;19.77;;;5.10;99.90;;;;;;4951534;29;20236;-56
2022/01/14 12:24:27;;;;;;;28.07;19.63;;;5.80;99.90;;;;;;4947448;29;20182;-55
2022/01/14 12:26:53;;;;;;;30.40;21.60;;;5.50;99.90;;;;;;4951163;29;20222;-56
2022/01/14 12:29:37;;;;;;;31.53;21.57;;;4.90;99.90;;;;;;4951650;29;20314;-58
2022/01/14 12:32:07;;;;;;;34.60;22.80;;;4.20;99.90;;;;;;4951101;29;20623;-57
2022/01/14 12:34:35;;;;;;;29.87;20.50;;;4.00;99.90;;;;;;4978138;28;20184;-58
2022/01/14 12:37:01;;;;;;;32.70;21.30;;;3.90;99.90;;;;;;5032864;28;20736;-55
2022/01/14 12:39:27;;;;;;;29.53;20.10;;;4.10;99.90;;;;;;5031426;28;20179;-60
2022/01/14 12:41:55;;;;;;;29.50;19.97;;;5.00;99.90;;;;;;5028021;28;20217;-56
2022/01/14 12:44:22;;;;;;;29.10;20.33;;;6.50;99.90;;;;;;5032138;28;20211;-56
2022/01/14 12:46:58;;;;;;;33.87;23.07;;;7.70;99.90;;;;;;5031677;28;20752;-58
2022/01/14 12:49:39;;;;;;;29.07;20.50;;;8.00;99.90;;;;;;5030997;28;20711;-56
2022/01/14 12:52:10;;;;;;;29.03;19.87;;;8.00;99.90;;;;;;5011220;28;21105;-56
2022/01/14 12:54:37;;;;;;;29.77;20.37;;;8.50;99.90;;;;;;5002265;28;20183;-58
2022/01/14 12:57:03;;;;;;;28.30;21.07;;;9.90;99.90;;;;;;5000822;28;20200;-60
2022/01/14 12:59:41;;;;;;;29.03;20.60;;;11.60;99.90;;;;;;4999735;28;20191;-52
2022/01/14 13:02:07;;;;;;;27.30;20.30;;;13.30;98.80;;;;;;5001797;28;20169;-60